Time;durP1;ratioP1;P1;durP2;ratioP2;P2;SDS_P1;SDS_P2;PMS_P1;PMS_P2;Temp;Humidity;BMP_temperature;BMP_pressure;BME280_temperature;BME280_humidity;BME280_pressure;Samples;Min_cycle;Max_cycle;Signal;HPM_P1;HPM_P2
2021/12/16 00:09:17;;;;;;;13.63;5.22;;;;;;;1.43;70.38;93720.03;4913941;29;20393;-88
2021/12/16 00:36:50;;;;;;;9.27;4.00;;;;;;;0.99;69.87;93656.97;4916896;29;20036;-88
2021/12/16 00:39:48;;;;;;;12.25;3.83;;;;;;;1.13;69.53;93680.19;4936309;29;20035;-88
2021/12/16 00:42:58;;;;;;;10.82;4.40;;;;;;;1.02;69.77;93664.28;4920545;29;20400;-88
2021/12/16 00:48:23;;;;;;;11.65;5.03;;;;;;;0.98;70.57;93652.00;4915765;29;20032;-88
2021/12/16 00:56:50;;;;;;;12.40;4.88;;;;;;;1.08;70.28;93669.66;4935330;29;20063;-87
2021/12/16 00:59:49;;;;;;;9.43;4.50;;;;;;;1.01;69.90;93657.56;4919477;29;20043;-88
2021/12/16 01:34:45;;;;;;;;;;;;;;;;;;;;;
2021/12/16 01:41:49;;;;;;;8.43;4.40;;;;;;;0.88;71.97;93690.25;4920956;29;20035;-88
2021/12/16 01:50:48;;;;;;;;;;;;;;;;;;;;;
2021/12/16 02:00:09;;;;;;;8.63;4.53;;;;;;;0.67;72.86;93668.81;4926262;29;20082;-87
2021/12/16 02:02:58;;;;;;;9.40;4.82;;;;;;;0.71;72.63;93676.97;4914471;29;20051;-88
2021/12/16 02:08:47;;;;;;;10.68;4.25;;;;;;;0.89;72.21;93704.75;4884282;29;20079;-88
2021/12/16 02:33:06;;;;;;;12.13;5.60;;;;;;;0.84;72.84;93687.28;4922103;29;20516;-88
2021/12/16 02:36:21;;;;;;;11.63;5.43;;;;;;;0.71;72.89;93669.22;4906647;29;20038;-88
2021/12/16 02:39:27;;;;;;;;;;;;;;;;;;;;;
2021/12/16 02:42:19;;;;;;;12.75;6.18;;;;;;;0.55;74.55;93654.94;4921345;29;20063;-88
2021/12/16 02:50:54;;;;;;;13.23;6.15;;;;;;;0.69;74.50;93684.09;4939633;29;20042;-88
2021/12/16 02:53:39;;;;;;;14.13;6.90;;;;;;;0.56;74.40;93667.63;4938162;29;20528;-87
2021/12/16 02:56:34;;;;;;;14.05;7.40;;;;;;;0.65;74.93;93680.31;4939481;29;20119;-88
2021/12/16 02:59:34;;;;;;;15.05;7.45;;;;;;;0.52;74.71;93674.16;4895215;29;20051;-87
2021/12/16 03:02:28;;;;;;;16.27;7.10;;;;;;;0.77;74.38;93704.53;4960576;28;20078;-89
2021/12/16 03:05:18;;;;;;;16.83;7.43;;;;;;;0.73;74.48;93705.91;4947799;28;20066;-94
2021/12/16 03:08:25;;;;;;;;;;;;;;;;;;;;;
2021/12/16 03:11:17;;;;;;;13.20;7.35;;;;;;;0.46;74.56;93661.25;4961702;28;20091;-87
2021/12/16 03:35:23;;;;;;;;;;;;;;;;;;;;;
2021/12/16 03:38:49;;;;;;;15.20;6.72;;;;;;;0.68;74.45;93698.00;4937751;29;20695;-88
2021/12/16 03:41:38;;;;;;;14.20;6.50;;;;;;;0.34;74.67;93640.44;4905019;29;20046;-87
2021/12/16 03:44:26;;;;;;;17.58;7.13;;;;;;;0.46;74.77;93667.22;4920432;29;20050;-88
2021/12/16 03:47:17;;;;;;;14.00;6.90;;;;;;;0.41;74.53;93670.38;4904446;29;20028;-88
2021/12/16 03:53:28;;;;;;;;;;;;;;;;;;;;;
2021/12/16 04:02:53;;;;;;;12.27;5.95;;;;;;;0.34;73.84;93643.81;4916691;29;20059;-87
2021/12/16 04:06:13;;;;;;;;;;;;;;;;;;;;;
2021/12/16 04:09:03;;;;;;;13.15;6.22;;;;;;;0.41;74.68;93651.53;4901040;29;20078;-88
2021/12/16 04:15:08;;;;;;;16.50;7.10;;;;;;;0.44;74.79;93661.44;4934572;29;20044;-87
2021/12/16 04:18:07;;;;;;;;;;;;;;;;;;;;;
2021/12/16 04:21:25;;;;;;;;;;;;;;;;;;;;;
2021/12/16 04:24:28;;;;;;;;;;;;;;;;;;;;;
2021/12/16 04:30:56;;;;;;;;;;;;;;;;;;;;;
2021/12/16 04:34:06;;;;;;;;;;;;;;;;;;;;;
2021/12/16 04:37:06;;;;;;;15.82;6.45;;;;;;;0.45;74.50;93662.25;4935669;29;20040;-88
2021/12/16 04:40:13;;;;;;;14.82;6.40;;;;;;;0.56;74.21;93679.69;4914564;29;20075;-87
2021/12/16 04:43:33;;;;;;;;;;;;;;;;;;;;;
2021/12/16 04:46:26;;;;;;;14.57;6.65;;;;;;;0.42;74.55;93650.53;4930343;29;20056;-88
2021/12/16 04:49:18;;;;;;;;;;;;;;;;;;;;;
2021/12/16 04:52:14;;;;;;;12.85;6.20;;;;;;;0.62;74.06;93679.72;4917396;29;20042;-88
2021/12/16 04:58:16;;;;;;;;;;;;;;;;;;;;;
2021/12/16 05:01:05;;;;;;;;;;;;;;;;;;;;;
2021/12/16 05:03:56;;;;;;;12.02;6.00;;;;;;;0.65;74.00;93681.09;4936480;29;20083;-88
2021/12/16 05:15:53;;;;;;;;;;;;;;;;;;;;;
2021/12/16 05:28:54;;;;;;;15.73;7.75;;;;;;;0.35;74.42;93660.03;4927188;29;20042;-88
2021/12/16 05:34:22;;;;;;;15.00;6.60;;;;;;;0.61;74.02;93693.59;4901155;29;20045;-88
2021/12/16 05:37:10;;;;;;;14.50;7.18;;;;;;;0.53;73.78;93675.75;4892327;29;20039;-86
2021/12/16 05:40:08;;;;;;;;;;;;;;;;;;;;;
2021/12/16 05:43:31;;;;;;;14.00;6.40;;;;;;;0.68;73.96;93693.63;4915587;29;20058;-86
2021/12/16 05:46:15;;;;;;;13.68;6.60;;;;;;;0.73;74.50;93695.59;4915234;29;20036;-88
2021/12/16 05:48:48;;;;;;;21.88;7.03;;;;;;;0.58;74.13;93673.38;4884126;29;20044;-86
2021/12/16 05:52:11;;;;;;;;;;;;;;;;;;;;;
2021/12/16 05:54:47;;;;;;;14.35;6.75;;;;;;;0.87;73.28;93723.00;4934101;29;20047;-87
2021/12/16 06:01:34;;;;;;;;;;;;;;;;;;;;;
2021/12/16 06:04:35;;;;;;;15.68;7.25;;;;;;;0.68;74.19;93692.84;4930973;29;20028;-86
2021/12/16 06:10:08;;;;;;;15.57;6.70;;;;;;;0.40;73.32;93657.66;4927258;29;20039;-87
2021/12/16 06:12:41;;;;;;;15.82;7.15;;;;;;;0.67;73.75;93698.97;4917563;29;20055;-86
2021/12/16 06:26:44;;;;;;;15.23;6.80;;;;;;;0.72;74.13;93699.97;4943034;29;20047;-86
2021/12/16 06:29:09;;;;;;;17.00;7.25;;;;;;;0.72;74.02;93699.97;4902685;29;20043;-86
2021/12/16 06:31:35;;;;;;;15.95;7.78;;;;;;;0.70;74.19;93698.56;4916796;29;20024;-87
2021/12/16 06:34:01;;;;;;;14.73;7.05;;;;;;;0.71;74.23;93707.91;4920849;29;20492;-87
2021/12/16 06:36:27;;;;;;;15.15;6.75;;;;;;;0.61;74.60;93688.44;4906490;29;20484;-87
2021/12/16 06:38:53;;;;;;;13.18;6.72;;;;;;;0.70;74.80;93701.13;4932764;28;20031;-90
2021/12/16 06:41:34;;;;;;;14.00;6.68;;;;;;;0.60;75.05;93697.16;4961896;28;20020;-95
2021/12/16 06:44:19;;;;;;;16.00;6.82;;;;;;;0.68;74.39;93695.41;4962588;28;20039;-88
2021/12/16 06:46:47;;;;;;;16.00;7.07;;;;;;;0.63;74.33;93695.97;4929336;29;20384;-85
2021/12/16 06:49:15;;;;;;;13.68;7.30;;;;;;;0.64;74.25;93701.94;4945107;29;20030;-86
2021/12/16 06:54:23;;;;;;;13.07;6.78;;;;;;;0.56;74.26;93688.25;4936917;29;20043;-88
2021/12/16 06:57:13;;;;;;;13.82;6.78;;;;;;;0.33;74.19;93649.13;4921489;29;20135;-85
2021/12/16 07:00:13;;;;;;;13.43;6.68;;;;;;;0.45;73.82;93652.75;4910542;29;20048;-87
2021/12/16 07:03:01;;;;;;;15.15;6.70;;;;;;;0.56;73.76;93675.38;4935245;29;20162;-86
2021/12/16 07:05:43;;;;;;;12.90;6.20;;;;;;;0.43;74.21;93649.56;4920655;29;20047;-86
2021/12/16 07:08:18;;;;;;;13.82;6.25;;;;;;;0.51;73.93;93667.41;4921131;29;20425;-86
2021/12/16 07:10:51;;;;;;;14.55;7.07;;;;;;;0.56;74.38;93670.22;4935950;29;20047;-85
2021/12/16 07:13:30;;;;;;;24.13;8.38;;;;;;;0.55;73.82;93671.19;4920967;29;20421;-85
2021/12/16 07:16:01;;;;;;;17.25;7.60;;;;;;;0.54;73.38;93664.47;4920598;29;20048;-86
2021/12/16 07:18:41;;;;;;;23.00;7.63;;;;;;;0.61;73.61;93680.72;4937305;29;20031;-85
2021/12/16 07:21:09;;;;;;;;;;;;;;;0.93;72.97;93724.00;4920825;29;20031;-85
2021/12/16 07:23:35;;;;;;;16.05;7.28;;;;;;;0.99;73.47;93724.00;4903859;29;19907;-86
2021/12/16 07:26:04;;;;;;;17.42;7.60;;;;;;;1.63;71.74;93698.59;4917046;29;20044;-86
2021/12/16 07:28:30;;;;;;;19.42;7.80;;;;;;;3.76;66.52;93702.59;4885543;29;20118;-86
2021/12/16 07:31:06;;;;;;;17.90;9.27;;;;;;;6.16;59.42;93723.44;4886301;29;20088;-86
2021/12/16 07:33:31;;;;;;;20.25;7.72;;;;;;;7.54;55.04;93670.44;4911085;29;20070;-86
2021/12/16 07:36:00;;;;;;;16.88;7.72;;;;;;;9.12;49.83;93689.91;4937552;29;20055;-87
2021/12/16 07:38:29;;;;;;;14.20;7.55;;;;;;;10.42;46.98;93690.53;4920077;29;20489;-88
2021/12/16 07:40:58;;;;;;;14.00;6.85;;;;;;;11.37;43.05;93655.38;4935887;29;20044;-87
2021/12/16 07:43:40;;;;;;;13.18;6.43;;;;;;;12.55;40.78;93665.72;4919275;29;20087;-86
2021/12/16 07:46:15;;;;;;;13.50;6.03;;;;;;;13.67;38.10;93653.75;4935907;29;20040;-87
2021/12/16 07:48:56;;;;;;;15.13;7.53;;;;;;;14.62;36.33;93660.16;4936420;29;20118;-88
2021/12/16 07:51:33;;;;;;;14.75;6.90;;;;;;;15.76;34.57;93676.00;4920010;29;20547;-87
2021/12/16 07:54:05;;;;;;;15.23;7.07;;;;;;;16.71;31.15;93662.44;4917774;29;20032;-86
2021/12/16 07:56:36;;;;;;;15.38;7.38;;;;;;;17.43;30.78;93661.72;4926438;29;20541;-87
2021/12/16 07:59:07;;;;;;;12.95;7.13;;;;;;;18.02;29.91;93649.19;4917438;29;20130;-87
2021/12/16 08:01:46;;;;;;;14.85;7.25;;;;;;;19.09;28.20;93676.53;4915785;29;20024;-87
2021/12/16 08:04:21;;;;;;;15.18;7.18;;;;;;;19.69;26.79;93683.78;4898681;29;20470;-87
2021/12/16 08:06:54;;;;;;;16.40;7.90;;;;;;;20.35;25.85;93666.78;4898601;29;20028;-86
2021/12/16 08:12:16;;;;;;;16.58;8.68;;;;;;;21.71;23.93;93671.22;4898833;29;20347;-87
2021/12/16 08:14:47;;;;;;;18.08;8.68;;;;;;;22.17;23.21;93670.13;4898785;29;20045;-87
2021/12/16 08:17:24;;;;;;;18.02;8.85;;;;;;;22.18;22.87;93674.38;4915989;29;20039;-87
2021/12/16 08:19:54;;;;;;;14.60;8.13;;;;;;;22.33;22.46;93653.53;4916115;29;20104;-87
2021/12/16 08:22:32;;;;;;;18.52;9.27;;;;;;;22.78;21.90;93666.78;4931444;29;20070;-87
2021/12/16 08:25:16;;;;;;;16.83;9.48;;;;;;;21.85;22.93;93694.94;4915032;29;20046;-87
2021/12/16 08:27:52;;;;;;;;;;;;;;;;;;;;;
2021/12/16 08:30:30;;;;;;;17.42;9.75;;;;;;;21.98;22.66;93649.31;4897577;29;20084;-88
2021/12/16 08:33:09;;;;;;;;;;;;;;;;;;;;;
2021/12/16 08:35:56;;;;;;;20.13;10.75;;;;;;;23.54;21.57;93648.47;4898163;29;20040;-88
2021/12/16 08:38:37;;;;;;;18.85;9.77;;;;;;;24.06;20.90;93641.47;4902486;29;20024;-88
2021/12/16 08:41:19;;;;;;;21.52;11.32;;;;;;;23.85;20.87;93663.09;4917512;29;20082;-88
2021/12/16 08:43:58;;;;;;;;;;;;;;;;;;;;;
2021/12/16 08:46:37;;;;;;;17.80;9.00;;;;;;;22.41;21.97;93642.00;4915615;29;20047;-87
2021/12/16 08:49:06;;;;;;;19.58;10.00;;;;;;;21.95;22.94;93657.19;4887015;29;20111;-88
2021/12/16 08:51:54;;;;;;;19.17;9.98;;;;;;;20.94;23.98;93639.47;4902291;29;20036;-87
2021/12/16 08:54:31;;;;;;;18.80;8.80;;;;;;;20.07;25.04;93643.25;4884301;29;20032;-87
2021/12/16 08:57:21;;;;;;;;;;;;;;;;;;;;;
2021/12/16 09:00:00;;;;;;;17.42;9.13;;;;;;;17.20;29.57;93640.50;4896938;29;20040;-87
2021/12/16 09:02:59;;;;;;;;;;;;;;;;;;;;;
2021/12/16 09:05:30;;;;;;;18.63;9.10;;;;;;;17.88;30.19;93640.53;4900232;29;20067;-90
2021/12/16 09:08:03;;;;;;;18.67;10.05;;;;;;;18.90;27.30;93645.00;4900418;29;20063;-87
2021/12/16 09:10:38;;;;;;;19.00;9.75;;;;;;;20.85;25.32;93673.31;4931998;29;20043;-89
2021/12/16 09:13:28;;;;;;;19.80;10.40;;;;;;;21.41;23.96;93640.13;4916509;29;20096;-88
2021/12/16 09:16:06;;;;;;;20.08;9.73;;;;;;;21.56;23.49;93637.94;4885113;29;20075;-88
2021/12/16 09:18:58;;;;;;;19.00;9.80;;;;;;;22.54;22.33;93672.09;4916287;29;20377;-87
2021/12/16 09:21:36;;;;;;;24.02;9.80;;;;;;;22.62;22.10;93645.31;4919326;29;20059;-87
2021/12/16 09:24:19;;;;;;;;;;;;;;;;;;;;;
2021/12/16 09:27:00;;;;;;;19.42;9.18;;;;;;;20.27;24.44;93638.38;4935721;29;20042;-87
2021/12/16 09:29:36;;;;;;;;;;;;;;;;;;;;;
2021/12/16 09:32:29;;;;;;;15.90;9.20;;;;;;;19.91;26.10;93671.44;4918548;29;20042;-87
2021/12/16 09:35:10;;;;;;;;;;;;;;;;;;;;;
2021/12/16 09:37:43;;;;;;;14.40;8.20;;;;;;;17.68;28.48;93657.69;4939446;29;20042;-87
2021/12/16 09:40:23;;;;;;;17.90;8.75;;;;;;;17.25;28.73;93658.13;4937666;29;20043;-87
2021/12/16 09:42:58;;;;;;;18.27;8.50;;;;;;;16.71;30.38;93678.28;4923217;29;20035;-88
2021/12/16 09:45:32;;;;;;;19.63;9.88;;;;;;;17.64;29.40;93694.56;4922070;29;20147;-88
2021/12/16 09:48:11;;;;;;;75.57;29.88;;;;;;;16.68;30.96;93676.22;4923155;29;20054;-87
2021/12/16 09:50:48;;;;;;;18.02;8.88;;;;;;;16.67;30.52;93664.88;4938440;29;20039;-87
2021/12/16 09:53:31;;;;;;;16.80;8.57;;;;;;;17.81;28.43;93633.03;4922349;29;20042;-87
2021/12/16 09:56:16;;;;;;;19.63;8.48;;;;;;;17.66;29.52;93636.78;4937302;29;20036;-87
2021/12/16 09:58:48;;;;;;;23.20;9.73;;;;;;;17.81;28.58;93629.53;4918834;29;20044;-87
2021/12/16 10:01:23;;;;;;;28.33;14.60;;;;;;;17.69;29.37;93665.31;4919066;29;20493;-88
2021/12/16 10:04:05;;;;;;;21.80;11.65;;;;;;;16.25;31.66;93640.28;4910448;29;20076;-87
2021/12/16 10:06:51;;;;;;;;;;;;;;;;;;;;;
2021/12/16 10:09:32;;;;;;;19.20;9.35;;;;;;;15.19;33.22;93626.69;4916333;29;20062;-86
2021/12/16 10:12:07;;;;;;;20.50;9.18;;;;;;;15.43;32.83;93623.19;4935716;29;20040;-87
2021/12/16 10:15:05;;;;;;;26.33;10.85;;;;;;;15.29;33.57;93644.25;4933719;29;20032;-87
2021/12/16 10:17:43;;;;;;;;;;;;;;;15.91;34.28;93680.25;4929922;28;20044;-96
2021/12/16 10:20:22;;;;;;;16.30;8.48;;;;;;;15.87;32.76;93637.00;4944710;28;19911;-91
2021/12/16 10:23:03;;;;;;;17.42;9.07;;;;;;;17.23;30.77;93649.72;4959607;29;20035;-92
2021/12/16 10:25:43;;;;;;;17.55;8.98;;;;;;;16.21;32.58;93612.88;4954721;29;20109;-87
2021/12/16 10:28:25;;;;;;;15.95;8.27;;;;;;;16.10;32.72;93664.34;4953820;29;20135;-87
2021/12/16 10:31:21;;;;;;;18.38;9.07;;;;;;;15.47;33.99;93602.28;4907128;29;20051;-87
2021/12/16 10:34:19;;;;;;;18.17;9.32;;;;;;;15.67;34.36;93653.94;4937314;29;20031;-87
2021/12/16 10:36:50;;;;;;;18.25;9.18;;;;;;;14.25;36.28;93618.66;4933865;29;20134;-87
2021/12/16 10:39:33;;;;;;;25.00;9.75;;;;;;;13.51;37.98;93619.66;4907129;29;20042;-87
2021/12/16 10:42:19;;;;;;;;;;;;;;;;;;;;;
2021/12/16 10:45:06;;;;;;;18.15;9.30;;;;;;;13.80;37.87;93599.66;4937575;29;20039;-87
2021/12/16 10:47:44;;;;;;;;;;;;;;;;;;;;;
2021/12/16 10:50:23;;;;;;;19.13;8.25;;;;;;;13.63;37.06;93585.09;4918431;29;20040;-88
2021/12/16 10:53:07;;;;;;;;;;;;;;;;;;;;;
2021/12/16 10:55:44;;;;;;;22.15;9.75;;;;;;;15.14;33.94;93576.66;4917520;29;20067;-88
2021/12/16 10:58:15;;;;;;;22.25;10.93;;;;;;;14.01;36.38;93574.72;4900247;29;20032;-87
2021/12/16 11:00:48;;;;;;;62.08;26.90;;;;;;;13.32;38.34;93553.81;4915570;29;20032;-88
2021/12/16 11:03:46;;;;;;;19.30;10.02;;;;;;;13.67;36.90;93564.28;4900364;29;20135;-88
2021/12/16 11:06:38;;;;;;;17.40;9.07;;;;;;;13.75;36.69;93561.03;4920183;29;20059;-87
2021/12/16 11:09:43;;;;;;;17.47;9.20;;;;;;;15.49;34.98;93616.78;4933589;29;20056;-87
2021/12/16 11:12:35;;;;;;;17.48;8.50;;;;;;;14.88;35.28;93560.47;4919949;29;20086;-86
2021/12/16 11:15:10;;;;;;;22.17;10.05;;;;;;;13.45;37.71;93602.34;4916484;29;20040;-87
2021/12/16 11:17:47;;;;;;;33.90;15.50;;;;;;;13.24;39.34;93608.78;4929592;29;20040;-87
2021/12/16 11:20:35;;;;;;;26.52;14.13;;;;;;;12.23;42.52;93623.03;4904468;29;20043;-87
2021/12/16 11:23:10;;;;;;;22.02;10.02;;;;;;;11.94;43.01;93598.47;4935581;29;20035;-88
2021/12/16 11:25:51;;;;;;;19.25;9.80;;;;;;;11.61;43.99;93603.19;4926371;29;20584;-86
2021/12/16 11:28:24;;;;;;;18.83;8.80;;;;;;;11.78;43.30;93593.22;4935891;29;20353;-87
2021/12/16 11:30:57;;;;;;;19.40;9.30;;;;;;;12.43;42.83;93579.38;4933316;29;20063;-88
2021/12/16 11:33:26;;;;;;;22.33;10.68;;;;;;;12.39;42.61;93581.75;4916845;29;20039;-87
2021/12/16 11:36:31;;;;;;;19.05;9.18;;;;;;;13.11;40.67;93589.19;4935163;29;20075;-87
2021/12/16 11:39:01;;;;;;;23.25;9.65;;;;;;;12.21;41.82;93583.13;4928560;29;20476;-86
2021/12/16 11:41:36;;;;;;;21.98;10.18;;;;;;;12.32;42.37;93593.59;4917680;29;20103;-87
2021/12/16 11:44:29;;;;;;;18.67;8.98;;;;;;;11.68;43.47;93574.84;4930921;29;20036;-88
2021/12/16 11:47:04;;;;;;;18.98;9.00;;;;;;;12.05;42.80;93582.41;4919670;29;20481;-86
2021/12/16 11:49:36;;;;;;;20.88;8.85;;;;;;;11.91;44.50;93591.09;4934006;29;20052;-87
2021/12/16 11:52:10;;;;;;;19.65;8.75;;;;;;;11.64;43.55;93568.56;4926954;29;20036;-88
2021/12/16 11:54:43;;;;;;;22.58;10.75;;;;;;;11.69;44.42;93584.31;4933946;29;20058;-87
2021/12/16 11:57:47;;;;;;;19.10;9.25;;;;;;;11.75;44.65;93580.59;4918266;29;20039;-87
2021/12/16 12:00:13;;;;;;;23.50;10.32;;;;;;;11.98;43.28;93583.72;4914731;29;20525;-87
2021/12/16 12:02:51;;;;;;;16.52;7.95;;;;;;;11.60;43.89;93562.31;4916340;29;20134;-87
2021/12/16 12:05:36;;;;;;;19.23;8.73;;;;;;;11.91;43.00;93562.22;4916102;29;20381;-87
2021/12/16 12:08:10;;;;;;;16.27;9.25;;;;;;;12.12;43.60;93582.13;4932334;29;20036;-87
2021/12/16 12:11:01;;;;;;;19.15;7.78;;;;;;;11.85;43.87;93550.97;4921500;29;20040;-87
2021/12/16 12:13:29;;;;;;;18.48;9.07;;;;;;;11.73;43.33;93563.56;4913533;29;20063;-86
2021/12/16 12:16:04;;;;;;;18.27;9.00;;;;;;;11.86;43.86;93561.16;4912664;29;20056;-89
2021/12/16 12:18:40;;;;;;;17.20;8.68;;;;;;;11.89;43.35;93554.66;4898271;29;20092;-87
2021/12/16 12:21:15;;;;;;;13.02;7.10;;;;;;;11.74;44.28;93559.91;4941557;29;20046;-87
2021/12/16 12:23:41;;;;;;;14.57;6.82;;;;;;;10.95;45.43;93526.19;4931450;29;20036;-87
2021/12/16 12:26:08;;;;;;;20.10;9.48;;;;;;;11.54;45.01;93563.34;4919142;29;20363;-88
2021/12/16 12:28:48;;;;;;;20.08;8.70;;;;;;;11.06;46.22;93524.38;4950296;29;20106;-86
2021/12/16 12:31:35;;;;;;;17.95;8.40;;;;;;;11.60;45.36;93551.81;4932615;29;20028;-86
2021/12/16 12:34:14;;;;;;;15.75;8.10;;;;;;;11.51;45.96;93527.19;4916920;29;20040;-87
2021/12/16 12:37:01;;;;;;;17.83;9.05;;;;;;;11.66;44.54;93520.06;4918482;29;20067;-86
2021/12/16 12:40:12;;;;;;;22.05;9.50;;;;;;;11.36;45.97;93488.69;4915853;29;20139;-87
2021/12/16 12:43:05;;;;;;;14.75;8.05;;;;;;;11.46;45.31;93514.88;4916068;29;20038;-87
2021/12/16 12:46:01;;;;;;;18.48;8.43;;;;;;;11.12;45.75;93493.69;4927585;29;20491;-86
2021/12/16 12:49:06;;;;;;;;;;;;;;;;;;;;;
2021/12/16 12:51:50;;;;;;;20.85;8.82;;;;;;;10.83;46.36;93481.94;4916006;29;20035;-86
2021/12/16 12:54:36;;;;;;;13.98;7.50;;;;;;;11.30;44.65;93469.53;4915032;29;20088;-86
2021/12/16 12:57:30;;;;;;;18.25;8.30;;;;;;;12.02;43.83;93527.84;4929576;29;20042;-87
2021/12/16 13:00:06;;;;;;;17.95;8.95;;;;;;;12.22;43.69;93500.69;4899609;29;20115;-87
2021/12/16 13:02:47;;;;;;;16.52;7.50;;;;;;;11.63;44.07;93464.72;4898731;29;20044;-89
2021/12/16 13:05:30;;;;;;;19.67;8.70;;;;;;;11.18;44.99;93466.44;4875450;29;20038;-87
2021/12/16 13:08:23;;;;;;;16.58;7.85;;;;;;;10.82;45.41;93469.88;4900917;29;20091;-86
2021/12/16 13:11:18;;;;;;;19.35;9.15;;;;;;;11.60;44.44;93473.91;4871124;29;20394;-87
2021/12/16 13:14:22;;;;;;;17.70;8.55;;;;;;;12.31;42.78;93505.38;4889407;29;20142;-87
2021/12/16 13:17:30;;;;;;;18.88;8.45;;;;;;;11.87;42.55;93454.41;4910552;29;20096;-88
2021/12/16 13:28:50;;;;;;;;;;;;;;;10.93;46.73;93511.78;4920456;29;20095;-87
2021/12/16 13:32:03;;;;;;;;;;;;;;;;;;;;;
2021/12/16 13:34:47;;;;;;;20.43;7.57;;;;;;;11.23;45.64;93505.72;4909058;29;20070;-87
2021/12/16 13:37:37;;;;;;;14.23;8.07;;;;;;;10.47;44.88;93447.13;4906456;29;20473;-87
2021/12/16 13:40:07;;;;;;;12.55;7.45;;;;;;;10.17;47.42;93443.38;4904494;29;20036;-86
2021/12/16 13:42:44;;;;;;;17.75;7.80;;;;;;;10.58;44.88;93443.47;4919353;29;20465;-87
2021/12/16 13:45:26;;;;;;;15.45;7.90;;;;;;;10.99;44.98;93480.09;4903081;29;20032;-86
2021/12/16 13:48:25;;;;;;;16.17;8.27;;;;;;;11.01;45.04;93493.72;4900377;29;20026;-88
2021/12/16 14:05:31;;;;;;;15.73;8.10;;;;;;;10.84;46.25;93504.44;4948640;29;20117;-87
2021/12/16 14:07:58;;;;;;;17.77;7.18;;;;;;;11.19;45.10;93504.69;4934276;29;20178;-87
2021/12/16 14:10:54;;;;;;;15.88;7.63;;;;;;;11.91;43.89;93509.75;4922240;29;20032;-86
2021/12/16 14:25:31;;;;;;;18.05;6.57;;;;;;;11.18;42.83;93524.09;4936865;29;20039;-86
2021/12/16 14:41:45;;;;;;;17.77;8.90;;;;;;;10.75;45.10;93536.69;4927653;29;20062;-87
2021/12/16 14:47:02;;;;;;;10.48;4.60;;;;;;;10.47;43.42;93538.75;4924757;29;20040;-86
2021/12/16 14:49:38;;;;;;;13.32;5.35;;;;;;;10.17;44.91;93537.56;4915265;29;20064;-88
2021/12/16 14:52:12;;;;;;;9.85;4.93;;;;;;;9.84;45.12;93537.97;4932975;29;20473;-90
2021/12/16 14:54:56;;;;;;;9.70;5.03;;;;;;;9.56;46.36;93547.78;4900311;29;20038;-88
2021/12/16 14:57:32;;;;;;;12.23;4.28;;;;;;;9.19;47.04;93543.41;4919972;29;20036;-86
2021/12/16 14:59:58;;;;;;;10.93;4.28;;;;;;;8.91;47.65;93531.44;4913918;29;20035;-89
2021/12/16 15:02:29;;;;;;;10.40;5.22;;;;;;;8.79;48.13;93554.31;4927539;29;20504;-86
2021/12/16 15:04:55;;;;;;;11.60;5.57;;;;;;;8.44;49.30;93527.63;4936326;29;20118;-87
2021/12/16 15:07:24;;;;;;;9.45;4.57;;;;;;;8.28;49.89;93528.50;4920252;29;20131;-86
2021/12/16 15:09:55;;;;;;;10.52;4.85;;;;;;;8.12;50.18;93549.19;4885487;29;20127;-86
2021/12/16 15:12:32;;;;;;;10.85;4.65;;;;;;;7.89;50.43;93541.66;4918591;29;20054;-86
2021/12/16 15:15:25;;;;;;;11.40;5.60;;;;;;;7.85;52.04;93551.75;4933238;29;20080;-86
2021/12/16 15:38:14;;;;;;;17.60;8.07;;;;;;;6.36;57.05;93567.00;4934909;29;20040;-86
2021/12/16 15:43:13;;;;;;;15.73;7.55;;;;;;;6.16;58.02;93587.44;4920179;29;20031;-85
2021/12/16 15:45:41;;;;;;;13.00;6.65;;;;;;;5.99;58.28;93567.41;4919581;29;20039;-87
2021/12/16 15:48:13;;;;;;;20.83;8.55;;;;;;;5.95;58.18;93581.09;4935026;29;20134;-86
2021/12/16 15:50:45;;;;;;;19.67;9.13;;;;;;;5.75;59.01;93573.63;4919165;29;20043;-86
2021/12/16 15:53:33;;;;;;;40.28;16.80;;;;;;;5.73;59.41;93583.47;4934369;29;20028;-87
2021/12/16 15:56:07;;;;;;;57.30;27.05;;;;;;;5.61;59.39;93584.28;4934674;29;20051;-87
2021/12/16 15:58:38;;;;;;;55.33;25.83;;;;;;;5.39;59.15;93573.69;4934543;29;20027;-88
2021/12/16 16:01:35;;;;;;;34.33;16.50;;;;;;;5.48;59.12;93596.72;4919332;29;20032;-88
2021/12/16 16:04:09;;;;;;;18.40;9.65;;;;;;;5.42;59.52;93599.19;4934810;29;20071;-89
2021/12/16 16:06:34;;;;;;;21.92;10.23;;;;;;;5.28;59.86;93605.63;4918760;29;20043;-87
2021/12/16 16:09:10;;;;;;;19.08;8.70;;;;;;;5.16;60.18;93600.44;4897360;29;20032;-87
2021/12/16 16:11:39;;;;;;;16.75;7.93;;;;;;;4.94;59.91;93581.25;4935658;29;20047;-89
2021/12/16 16:14:06;;;;;;;19.02;9.10;;;;;;;4.89;60.08;93586.31;4932389;29;20086;-86
2021/12/16 16:16:40;;;;;;;20.40;10.43;;;;;;;4.97;60.56;93606.72;4931247;29;20036;-86
2021/12/16 16:19:18;;;;;;;15.98;7.85;;;;;;;4.49;60.46;93545.41;4913649;29;20562;-87
2021/12/16 16:22:04;;;;;;;18.42;9.95;;;;;;;4.54;60.47;93577.44;4918862;29;20039;-87
2021/12/16 16:25:12;;;;;;;24.73;10.68;;;;;;;4.34;60.64;93569.94;4920253;29;20050;-87
2021/12/16 16:27:58;;;;;;;;;;;;;;;;;;;;;
2021/12/16 16:30:44;;;;;;;40.20;16.85;;;;;;;4.08;61.45;93573.69;4935199;29;20039;-89
2021/12/16 16:34:43;;;;;;;;;;;;;;;;;;;;;
2021/12/16 16:38:32;;;;;;;13.80;5.85;;;;;;;4.38;61.22;93661.81;4876696;29;20056;-87
2021/12/16 16:41:54;;;;;;;16.60;7.38;;;;;;;3.93;61.99;93606.94;4801830;29;20053;-87
2021/12/16 16:49:18;;;;;;;17.83;8.10;;;;;;;3.80;62.70;93607.88;4807994;29;20054;-87
2021/12/16 16:52:55;;;;;;;;;;;;;;;;;;;;;
2021/12/16 17:12:33;;;;;;;;;;;;;;;;;;;;;
2021/12/16 17:35:15;;;;;;;17.77;7.13;;;;;;;3.43;66.58;93721.00;4907479;23;20470;-78
2021/12/16 17:38:12;;;;;;;20.48;7.93;;;;;;;3.31;66.68;93708.75;5013447;28;20037;-79
2021/12/16 17:40:42;;;;;;;20.33;9.30;;;;;;;3.30;66.86;93719.31;4992736;28;20049;-80
2021/12/16 17:43:15;;;;;;;23.42;12.73;;;;;;;3.22;66.76;93710.00;4977823;28;20034;-81
2021/12/16 17:45:51;;;;;;;33.97;15.02;;;;;;;3.21;66.97;93715.38;4991356;28;20030;-80
2021/12/16 17:48:22;;;;;;;23.42;11.80;;;;;;;3.16;67.76;93710.84;5009760;28;20034;-80
2021/12/16 17:50:57;;;;;;;18.00;9.80;;;;;;;3.15;68.03;93723.97;4964133;28;20377;-80
2021/12/16 17:53:23;;;;;;;19.60;8.93;;;;;;;3.12;67.86;93723.41;4996914;28;20034;-77
2021/12/16 17:55:58;;;;;;;19.63;9.23;;;;;;;3.05;68.31;93733.00;4984824;28;20034;-79
2021/12/16 17:58:28;;;;;;;16.10;8.25;;;;;;;2.99;68.41;93726.06;4975624;28;20041;-80
2021/12/16 18:01:04;;;;;;;14.77;7.40;;;;;;;2.96;68.21;93731.66;5001251;28;20042;-78
2021/12/16 18:03:35;;;;;;;15.73;7.25;;;;;;;2.87;68.80;93743.25;5003433;28;20038;-79
2021/12/16 18:06:05;;;;;;;15.13;7.35;;;;;;;2.86;68.51;93752.00;4988799;28;20034;-80
2021/12/16 18:08:35;;;;;;;20.08;8.77;;;;;;;2.81;68.78;93747.47;5013379;28;20073;-80
2021/12/16 18:11:11;;;;;;;18.52;9.35;;;;;;;2.81;69.15;93749.25;5002138;28;20058;-80
2021/12/16 18:13:45;;;;;;;16.25;8.38;;;;;;;2.76;69.67;93755.06;4980771;28;20052;-81
2021/12/16 18:16:29;;;;;;;18.25;9.18;;;;;;;2.75;70.08;93766.41;4986153;28;20066;-80
2021/12/16 18:18:59;;;;;;;23.80;10.02;;;;;;;2.70;70.06;93772.19;5006417;28;20055;-79
2021/12/16 18:21:26;;;;;;;29.40;14.65;;;;;;;2.85;71.78;93781.47;5000532;28;20038;-80
2021/12/16 18:23:58;;;;;;;22.70;11.55;;;;;;;2.92;71.46;93775.25;4992857;28;20029;-81
2021/12/16 18:26:34;;;;;;;21.25;9.82;;;;;;;2.98;70.89;93781.41;5012056;28;20026;-80
2021/12/16 18:29:05;;;;;;;24.88;11.13;;;;;;;2.94;70.38;93782.81;5002196;28;20061;-81
2021/12/16 18:31:31;;;;;;;25.10;11.07;;;;;;;2.92;70.09;93790.00;4982885;28;20391;-79
2021/12/16 18:34:11;;;;;;;30.20;12.38;;;;;;;2.85;70.09;93784.06;4991785;28;20055;-82
2021/12/16 18:36:37;;;;;;;25.85;11.25;;;;;;;2.79;70.52;93783.09;5010673;28;20038;-82
2021/12/16 18:39:24;;;;;;;31.75;14.45;;;;;;;2.74;71.59;93795.84;4984217;28;20148;-80
2021/12/16 18:42:03;;;;;;;34.50;14.65;;;;;;;2.61;71.51;93794.13;4996172;28;20062;-80
2021/12/16 18:44:39;;;;;;;32.88;14.05;;;;;;;2.62;71.18;93800.06;4974213;28;20050;-80
2021/12/16 18:47:39;;;;;;;33.20;10.93;;;;;;;2.57;71.41;93802.47;4985821;28;20472;-79
2021/12/16 18:50:29;;;;;;;24.23;10.88;;;;;;;2.52;71.73;93804.88;5006119;28;20038;-80
2021/12/16 18:55:38;;;;;;;21.80;10.73;;;;;;;2.49;71.50;93816.41;4989166;28;20038;-81
2021/12/16 18:58:07;;;;;;;21.92;10.45;;;;;;;2.50;71.87;93825.78;4996684;28;20034;-80
2021/12/16 19:00:39;;;;;;;25.77;10.10;;;;;;;2.47;72.06;93816.59;4993094;28;20037;-81
2021/12/16 19:03:05;;;;;;;20.88;9.50;;;;;;;2.45;72.46;93815.22;5003634;28;20041;-81